ASH6302 KTUS-KIAH
Flight info
| Callsign | ASH6302 |
|---|---|
| Flight time | 1h 53m |
| Altitude | 35000 |
| Route | BURRO5 NOCHI DCT ELP DCT FST J138 SAT TEJAS5 |
| Aircraft | E175/M-SDE3GILORVW/S |
Departure
| Time | 2026-04-24 19:31 |
|---|---|
| Airport | Tucson International Airport (KTUS) |
Arrival
| Time | 2026-04-24 21:24 |
|---|---|
| Airport | George Bush Intercontinental Airport (KIAH) |
| Time | Latitude | Longitude | Altitude | Speed | Heading |
|---|---|---|---|---|---|
| 2026-04-24 18:58 | 32.11933 | -110.93671 | 2605 ft | 0 kts | 255° |
| 2026-04-24 19:19 | 32.11935 | -110.93664 | 2605 ft | 2 kts | 255° |
| 2026-04-24 19:20 | 32.11939 | -110.93646 | 2605 ft | 2 kts | 255° |
| 2026-04-24 19:20 | 32.11943 | -110.93629 | 2605 ft | 2 kts | 255° |
| 2026-04-24 19:20 | 32.11945 | -110.93618 | 2605 ft | 0 kts | 256° |
| 2026-04-24 19:20 | 32.11949 | -110.93610 | 2605 ft | 1 kts | 201° |
| 2026-04-24 19:21 | 32.11955 | -110.93610 | 2605 ft | 0 kts | 156° |
| 2026-04-24 19:21 | 32.11951 | -110.93610 | 2605 ft | 2 kts | 162° |
| 2026-04-24 19:21 | 32.11935 | -110.93595 | 2605 ft | 0 kts | 134° |
| 2026-04-24 19:24 | 32.11935 | -110.93594 | 2605 ft | 0 kts | 134° |
| 2026-04-24 19:25 | 32.11926 | -110.93584 | 2606 ft | 2 kts | 134° |
| 2026-04-24 19:25 | 32.11908 | -110.93562 | 2606 ft | 4 kts | 135° |
| 2026-04-24 19:25 | 32.11877 | -110.93538 | 2607 ft | 6 kts | 172° |
| 2026-04-24 19:25 | 32.11837 | -110.93565 | 2607 ft | 7 kts | 222° |
| 2026-04-24 19:26 | 32.11793 | -110.93615 | 2608 ft | 9 kts | 225° |
| 2026-04-24 19:26 | 32.11747 | -110.93670 | 2609 ft | 9 kts | 233° |
| 2026-04-24 19:26 | 32.11769 | -110.93745 | 2607 ft | 12 kts | 313° |
| 2026-04-24 19:26 | 32.11756 | -110.93805 | 2606 ft | 8 kts | 225° |
| 2026-04-24 19:27 | 32.11755 | -110.93864 | 2606 ft | 9 kts | 314° |
| 2026-04-24 19:27 | 32.11807 | -110.93926 | 2605 ft | 12 kts | 315° |
| 2026-04-24 19:27 | 32.11877 | -110.94008 | 2603 ft | 15 kts | 315° |
| 2026-04-24 19:27 | 32.11961 | -110.94107 | 2600 ft | 18 kts | 315° |
| 2026-04-24 19:28 | 32.12058 | -110.94219 | 2596 ft | 20 kts | 315° |
| 2026-04-24 19:28 | 32.12166 | -110.94348 | 2591 ft | 23 kts | 315° |
| 2026-04-24 19:28 | 32.12276 | -110.94477 | 2586 ft | 20 kts | 315° |
| 2026-04-24 19:28 | 32.12362 | -110.94578 | 2583 ft | 16 kts | 315° |
| 2026-04-24 19:29 | 32.12389 | -110.94710 | 2580 ft | 10 kts | 225° |
| 2026-04-24 19:29 | 32.12340 | -110.94767 | 2580 ft | 8 kts | 225° |
| 2026-04-24 19:29 | 32.12312 | -110.94766 | 2580 ft | 0 kts | 132° |
| 2026-04-24 19:30 | 32.12288 | -110.94736 | 2581 ft | 26 kts | 135° |
| 2026-04-24 19:30 | 32.11993 | -110.94390 | 2594 ft | 92 kts | 135° |
| 2026-04-24 19:30 | 32.11397 | -110.93687 | 2614 ft | 147 kts | 135° |
| 2026-04-24 19:30 | 32.10596 | -110.92751 | 2889 ft | 167 kts | 135° |
| 2026-04-24 19:31 | 32.09752 | -110.91759 | 3355 ft | 180 kts | 136° |
| 2026-04-24 19:31 | 32.08857 | -110.90709 | 3995 ft | 183 kts | 136° |
| 2026-04-24 19:31 | 32.07942 | -110.89623 | 4485 ft | 193 kts | 136° |
| 2026-04-24 19:31 | 32.06972 | -110.88482 | 5002 ft | 200 kts | 137° |
| 2026-04-24 19:32 | 32.05963 | -110.87313 | 5494 ft | 210 kts | 138° |
| 2026-04-24 19:32 | 32.04904 | -110.86092 | 5949 ft | 223 kts | 137° |
| 2026-04-24 19:32 | 32.03774 | -110.84769 | 6466 ft | 232 kts | 137° |
| 2026-04-24 19:32 | 32.02611 | -110.83411 | 6949 ft | 243 kts | 137° |
| 2026-04-24 19:33 | 32.01380 | -110.81956 | 7249 ft | 264 kts | 137° |
| 2026-04-24 19:33 | 32.00019 | -110.80368 | 7553 ft | 283 kts | 138° |
| 2026-04-24 19:33 | 31.98570 | -110.78732 | 8093 ft | 292 kts | 139° |
| 2026-04-24 19:33 | 31.97091 | -110.77096 | 8761 ft | 295 kts | 139° |
| 2026-04-24 19:34 | 31.95593 | -110.75433 | 9493 ft | 296 kts | 139° |
| 2026-04-24 19:34 | 31.94259 | -110.73622 | 10146 ft | 302 kts | 119° |
| 2026-04-24 19:34 | 31.93622 | -110.71225 | 10725 ft | 311 kts | 104° |
| 2026-04-24 19:34 | 31.93159 | -110.68728 | 11190 ft | 320 kts | 104° |
| 2026-04-24 19:35 | 31.92675 | -110.66121 | 11642 ft | 330 kts | 104° |
| 2026-04-24 19:35 | 31.92184 | -110.63483 | 12067 ft | 340 kts | 104° |
| 2026-04-24 19:35 | 31.91670 | -110.60720 | 12518 ft | 348 kts | 104° |
| 2026-04-24 19:35 | 31.91145 | -110.57901 | 13027 ft | 355 kts | 104° |
| 2026-04-24 19:36 | 31.90619 | -110.55082 | 13583 ft | 358 kts | 104° |
| 2026-04-24 19:36 | 31.90085 | -110.52226 | 14149 ft | 361 kts | 104° |
| 2026-04-24 19:36 | 31.89592 | -110.49316 | 14677 ft | 367 kts | 95° |
| 2026-04-24 19:36 | 31.89842 | -110.46332 | 15168 ft | 372 kts | 77° |
| 2026-04-24 19:37 | 31.90414 | -110.43363 | 15701 ft | 375 kts | 76° |
| 2026-04-24 19:37 | 31.90999 | -110.40349 | 16229 ft | 378 kts | 76° |
| 2026-04-24 19:37 | 31.91579 | -110.37356 | 16745 ft | 382 kts | 76° |
| 2026-04-24 19:37 | 31.92170 | -110.34303 | 17259 ft | 385 kts | 76° |
| 2026-04-24 19:38 | 31.92766 | -110.31222 | 17732 ft | 389 kts | 76° |
| 2026-04-24 19:38 | 31.93369 | -110.28099 | 18214 ft | 392 kts | 76° |
| 2026-04-24 19:38 | 31.93969 | -110.24991 | 18680 ft | 396 kts | 76° |
| 2026-04-24 19:38 | 31.94583 | -110.21798 | 19144 ft | 400 kts | 76° |
| 2026-04-24 19:39 | 31.95191 | -110.18640 | 19574 ft | 404 kts | 76° |
| 2026-04-24 19:39 | 31.95817 | -110.15379 | 20021 ft | 408 kts | 76° |
| 2026-04-24 19:39 | 31.96445 | -110.12107 | 20460 ft | 412 kts | 76° |
| 2026-04-24 19:39 | 31.97071 | -110.08833 | 20903 ft | 416 kts | 76° |
| 2026-04-24 19:40 | 31.97711 | -110.05488 | 21346 ft | 419 kts | 76° |
| 2026-04-24 19:40 | 31.98348 | -110.02149 | 21766 ft | 423 kts | 76° |
| 2026-04-24 19:40 | 31.98998 | -109.98740 | 22188 ft | 426 kts | 76° |
| 2026-04-24 19:40 | 31.99642 | -109.95357 | 22569 ft | 430 kts | 76° |
| 2026-04-24 19:41 | 32.00297 | -109.91906 | 22983 ft | 433 kts | 75° |
| 2026-04-24 19:41 | 32.00953 | -109.88451 | 23391 ft | 436 kts | 75° |
| 2026-04-24 19:41 | 32.01619 | -109.84936 | 23790 ft | 440 kts | 75° |
| 2026-04-24 19:41 | 32.02281 | -109.81436 | 24191 ft | 443 kts | 76° |
| 2026-04-24 19:42 | 32.02956 | -109.77859 | 24577 ft | 446 kts | 76° |
| 2026-04-24 19:42 | 32.03221 | -109.74229 | 24919 ft | 450 kts | 92° |
| 2026-04-24 19:42 | 32.03071 | -109.70577 | 25286 ft | 453 kts | 94° |
| 2026-04-24 19:42 | 32.02894 | -109.66860 | 25687 ft | 455 kts | 94° |
| 2026-04-24 19:43 | 32.02712 | -109.63147 | 26042 ft | 458 kts | 94° |
| 2026-04-24 19:43 | 32.02524 | -109.59379 | 26415 ft | 460 kts | 94° |
| 2026-04-24 19:43 | 32.02336 | -109.55624 | 26759 ft | 463 kts | 94° |
| 2026-04-24 19:43 | 32.02143 | -109.51823 | 27119 ft | 466 kts | 94° |
| 2026-04-24 19:44 | 32.01951 | -109.48035 | 27472 ft | 468 kts | 94° |
| 2026-04-24 19:44 | 32.01754 | -109.44196 | 27840 ft | 470 kts | 94° |
| 2026-04-24 19:44 | 32.01557 | -109.40356 | 28178 ft | 473 kts | 94° |
| 2026-04-24 19:44 | 32.01358 | -109.36521 | 28508 ft | 475 kts | 94° |
| 2026-04-24 19:45 | 32.01155 | -109.32620 | 28848 ft | 477 kts | 95° |
| 2026-04-24 19:45 | 32.00950 | -109.28702 | 29142 ft | 480 kts | 95° |
| 2026-04-24 19:45 | 32.00744 | -109.24802 | 29434 ft | 483 kts | 95° |
| 2026-04-24 19:45 | 32.00536 | -109.20866 | 29697 ft | 486 kts | 95° |
| 2026-04-24 19:46 | 32.00324 | -109.16885 | 29953 ft | 489 kts | 95° |
| 2026-04-24 19:46 | 32.00108 | -109.12860 | 30236 ft | 491 kts | 95° |
| 2026-04-24 19:46 | 31.99893 | -109.08871 | 30500 ft | 494 kts | 95° |
| 2026-04-24 19:46 | 31.99675 | -109.04857 | 30751 ft | 497 kts | 95° |
| 2026-04-24 19:47 | 31.99453 | -109.00804 | 30984 ft | 500 kts | 95° |
| 2026-04-24 19:47 | 31.99229 | -108.96707 | 31245 ft | 502 kts | 95° |
| 2026-04-24 19:47 | 31.99001 | -108.92577 | 31471 ft | 505 kts | 95° |
| 2026-04-24 19:47 | 31.98773 | -108.88477 | 31740 ft | 507 kts | 95° |
| 2026-04-24 19:48 | 31.98543 | -108.84371 | 32000 ft | 508 kts | 95° |
| 2026-04-24 19:48 | 31.98309 | -108.80191 | 32298 ft | 509 kts | 95° |
| 2026-04-24 19:48 | 31.97839 | -108.71910 | 32948 ft | 510 kts | 95° |
| 2026-04-24 19:49 | 31.97358 | -108.63526 | 33577 ft | 510 kts | 95° |
| 2026-04-24 19:49 | 31.96874 | -108.55180 | 34168 ft | 512 kts | 95° |
| 2026-04-24 19:50 | 31.96134 | -108.42579 | 35064 ft | 505 kts | 95° |
| 2026-04-24 19:50 | 31.95887 | -108.38442 | 35090 ft | 511 kts | 95° |
| 2026-04-24 19:51 | 31.95377 | -108.29958 | 35082 ft | 524 kts | 95° |
| 2026-04-24 19:51 | 31.95114 | -108.25610 | 35078 ft | 530 kts | 96° |
| 2026-04-24 19:52 | 31.94300 | -108.12302 | 35068 ft | 540 kts | 95° |
| 2026-04-24 19:52 | 31.93755 | -108.03527 | 35069 ft | 537 kts | 95° |
| 2026-04-24 19:53 | 31.93207 | -107.94801 | 35068 ft | 539 kts | 95° |
| 2026-04-24 19:54 | 31.92371 | -107.81661 | 35073 ft | 539 kts | 95° |
| 2026-04-24 19:54 | 31.91805 | -107.72897 | 35064 ft | 538 kts | 95° |
| 2026-04-24 19:55 | 31.91330 | -107.65599 | 35064 ft | 539 kts | 95° |
| 2026-04-24 19:55 | 31.90654 | -107.55338 | 35066 ft | 539 kts | 95° |
| 2026-04-24 19:56 | 31.90075 | -107.46636 | 35062 ft | 540 kts | 95° |
| 2026-04-24 19:56 | 31.89485 | -107.37862 | 35066 ft | 539 kts | 95° |
| 2026-04-24 19:57 | 31.88886 | -107.29058 | 35053 ft | 539 kts | 96° |
| 2026-04-24 19:57 | 31.88288 | -107.20348 | 35051 ft | 538 kts | 96° |
| 2026-04-24 19:58 | 31.87680 | -107.11578 | 35055 ft | 539 kts | 96° |
| 2026-04-24 19:58 | 31.87068 | -107.02850 | 35051 ft | 540 kts | 95° |
| 2026-04-24 19:59 | 31.86445 | -106.94054 | 35049 ft | 539 kts | 96° |
| 2026-04-24 19:59 | 31.85820 | -106.85310 | 35043 ft | 539 kts | 95° |
| 2026-04-24 20:00 | 31.85192 | -106.76605 | 35041 ft | 540 kts | 95° |
| 2026-04-24 20:00 | 31.84552 | -106.67811 | 35048 ft | 541 kts | 96° |
| 2026-04-24 20:01 | 31.83907 | -106.59042 | 35041 ft | 540 kts | 95° |
| 2026-04-24 20:01 | 31.83256 | -106.50270 | 35050 ft | 542 kts | 96° |
| 2026-04-24 20:02 | 31.82706 | -106.42933 | 35048 ft | 541 kts | 95° |
| 2026-04-24 20:02 | 31.81933 | -106.32694 | 35034 ft | 540 kts | 96° |
| 2026-04-24 20:03 | 31.80548 | -106.24099 | 35037 ft | 538 kts | 108° |
| 2026-04-24 20:03 | 31.78487 | -106.15629 | 35043 ft | 537 kts | 109° |
| 2026-04-24 20:04 | 31.76410 | -106.07235 | 35062 ft | 537 kts | 109° |
| 2026-04-24 20:04 | 31.74302 | -105.98751 | 35069 ft | 540 kts | 109° |
| 2026-04-24 20:05 | 31.72184 | -105.90245 | 35090 ft | 538 kts | 109° |
| 2026-04-24 20:05 | 31.70075 | -105.81809 | 35093 ft | 538 kts | 109° |
| 2026-04-24 20:06 | 31.67954 | -105.73349 | 35101 ft | 538 kts | 109° |
| 2026-04-24 20:06 | 31.65822 | -105.64874 | 35099 ft | 540 kts | 109° |
| 2026-04-24 20:07 | 31.64046 | -105.57832 | 35087 ft | 539 kts | 108° |
| 2026-04-24 20:07 | 31.61544 | -105.47937 | 35082 ft | 540 kts | 109° |
| 2026-04-24 20:08 | 31.59397 | -105.39475 | 35079 ft | 539 kts | 109° |
| 2026-04-24 20:08 | 31.57240 | -105.31006 | 35052 ft | 538 kts | 109° |
| 2026-04-24 20:09 | 31.55089 | -105.22584 | 35055 ft | 541 kts | 109° |
| 2026-04-24 20:09 | 31.52936 | -105.14177 | 35064 ft | 540 kts | 109° |
| 2026-04-24 20:10 | 31.50782 | -105.05795 | 35084 ft | 539 kts | 109° |
| 2026-04-24 20:10 | 31.48608 | -104.97356 | 35097 ft | 539 kts | 109° |
| 2026-04-24 20:11 | 31.46446 | -104.88994 | 35091 ft | 540 kts | 109° |
| 2026-04-24 20:11 | 31.44268 | -104.80595 | 35067 ft | 542 kts | 109° |
| 2026-04-24 20:12 | 31.42068 | -104.72126 | 35050 ft | 540 kts | 109° |
| 2026-04-24 20:12 | 31.39870 | -104.63703 | 35047 ft | 540 kts | 109° |
| 2026-04-24 20:13 | 31.37672 | -104.55299 | 35071 ft | 541 kts | 110° |
| 2026-04-24 20:13 | 31.35462 | -104.46875 | 35072 ft | 541 kts | 109° |
| 2026-04-24 20:14 | 31.33261 | -104.38507 | 35065 ft | 540 kts | 109° |
| 2026-04-24 20:14 | 31.31050 | -104.30131 | 35031 ft | 541 kts | 109° |
| 2026-04-24 20:15 | 31.28832 | -104.21751 | 35030 ft | 541 kts | 110° |
| 2026-04-24 20:15 | 31.26606 | -104.13364 | 35016 ft | 541 kts | 110° |
| 2026-04-24 20:16 | 31.24360 | -104.04923 | 35012 ft | 542 kts | 110° |
| 2026-04-24 20:16 | 31.22121 | -103.96539 | 35006 ft | 539 kts | 110° |
| 2026-04-24 20:17 | 31.19882 | -103.88176 | 35012 ft | 540 kts | 110° |
| 2026-04-24 20:17 | 31.16514 | -103.75644 | 34993 ft | 541 kts | 110° |
| 2026-04-24 20:18 | 31.14261 | -103.67289 | 34989 ft | 540 kts | 110° |
| 2026-04-24 20:18 | 31.11997 | -103.58917 | 34988 ft | 541 kts | 110° |
| 2026-04-24 20:19 | 31.09731 | -103.50565 | 34967 ft | 540 kts | 110° |
| 2026-04-24 20:19 | 31.07453 | -103.42188 | 34973 ft | 540 kts | 110° |
| 2026-04-24 20:20 | 31.05172 | -103.33826 | 34958 ft | 539 kts | 111° |
| 2026-04-24 20:20 | 31.02876 | -103.25433 | 34941 ft | 541 kts | 111° |
| 2026-04-24 20:21 | 31.00571 | -103.17036 | 34948 ft | 541 kts | 110° |
| 2026-04-24 20:21 | 30.98257 | -103.08621 | 34936 ft | 542 kts | 110° |
| 2026-04-24 20:22 | 30.95936 | -103.00214 | 34943 ft | 542 kts | 110° |
| 2026-04-24 20:22 | 30.93736 | -102.91853 | 34953 ft | 541 kts | 110° |
| 2026-04-24 20:23 | 30.91562 | -102.83406 | 34949 ft | 543 kts | 109° |
| 2026-04-24 20:23 | 30.89392 | -102.75002 | 34951 ft | 542 kts | 109° |
| 2026-04-24 20:24 | 30.87219 | -102.66615 | 34944 ft | 543 kts | 109° |
| 2026-04-24 20:24 | 30.85003 | -102.58089 | 34946 ft | 543 kts | 109° |
| 2026-04-24 20:25 | 30.82816 | -102.49693 | 34957 ft | 543 kts | 109° |
| 2026-04-24 20:25 | 30.80609 | -102.41253 | 34958 ft | 542 kts | 109° |
| 2026-04-24 20:26 | 30.78405 | -102.32838 | 34947 ft | 540 kts | 110° |
| 2026-04-24 20:26 | 30.76205 | -102.24472 | 34939 ft | 540 kts | 110° |
| 2026-04-24 20:27 | 30.73966 | -102.15987 | 34933 ft | 543 kts | 109° |
| 2026-04-24 20:27 | 30.71758 | -102.07630 | 34921 ft | 540 kts | 110° |
| 2026-04-24 20:28 | 30.69518 | -101.99188 | 34912 ft | 541 kts | 109° |
| 2026-04-24 20:28 | 30.67297 | -101.90834 | 34908 ft | 542 kts | 109° |
| 2026-04-24 20:29 | 30.65060 | -101.82445 | 34913 ft | 543 kts | 110° |
| 2026-04-24 20:29 | 30.62807 | -101.74026 | 34910 ft | 544 kts | 109° |
| 2026-04-24 20:30 | 30.60545 | -101.65591 | 34903 ft | 544 kts | 109° |
| 2026-04-24 20:30 | 30.58281 | -101.57176 | 34893 ft | 544 kts | 110° |
| 2026-04-24 20:31 | 30.56012 | -101.48771 | 34890 ft | 545 kts | 109° |
| 2026-04-24 20:31 | 30.53726 | -101.40321 | 34889 ft | 545 kts | 109° |
| 2026-04-24 20:32 | 30.51445 | -101.31915 | 34871 ft | 545 kts | 110° |
| 2026-04-24 20:32 | 30.49171 | -101.23556 | 34873 ft | 545 kts | 110° |
| 2026-04-24 20:33 | 30.46880 | -101.15156 | 34867 ft | 544 kts | 110° |
| 2026-04-24 20:33 | 30.44589 | -101.06784 | 34875 ft | 544 kts | 110° |
| 2026-04-24 20:34 | 30.42284 | -100.98386 | 34873 ft | 547 kts | 110° |
| 2026-04-24 20:34 | 30.39981 | -100.90014 | 34876 ft | 548 kts | 110° |
| 2026-04-24 20:35 | 30.37675 | -100.81654 | 34878 ft | 545 kts | 110° |
| 2026-04-24 20:35 | 30.35346 | -100.73240 | 34890 ft | 548 kts | 110° |
| 2026-04-24 20:36 | 30.33014 | -100.64834 | 34888 ft | 544 kts | 110° |
| 2026-04-24 20:36 | 30.30701 | -100.56516 | 34898 ft | 544 kts | 110° |
| 2026-04-24 20:37 | 30.28362 | -100.48135 | 34899 ft | 546 kts | 110° |
| 2026-04-24 20:37 | 30.26015 | -100.39748 | 34905 ft | 548 kts | 110° |
| 2026-04-24 20:38 | 30.23660 | -100.31349 | 34877 ft | 546 kts | 110° |
| 2026-04-24 20:38 | 30.21307 | -100.22984 | 34890 ft | 546 kts | 110° |
| 2026-04-24 20:39 | 30.18965 | -100.14684 | 34889 ft | 546 kts | 110° |
| 2026-04-24 20:39 | 30.16572 | -100.06222 | 34895 ft | 548 kts | 110° |
| 2026-04-24 20:40 | 30.14188 | -99.97815 | 34896 ft | 547 kts | 111° |
| 2026-04-24 20:40 | 30.11817 | -99.89483 | 34893 ft | 548 kts | 110° |
| 2026-04-24 20:41 | 30.09411 | -99.81039 | 34891 ft | 548 kts | 110° |
| 2026-04-24 20:41 | 30.07007 | -99.72636 | 34902 ft | 546 kts | 110° |
| 2026-04-24 20:42 | 30.04618 | -99.64302 | 34899 ft | 547 kts | 110° |
| 2026-04-24 20:42 | 30.02232 | -99.55999 | 34888 ft | 547 kts | 110° |
| 2026-04-24 20:43 | 29.99826 | -99.47656 | 34889 ft | 547 kts | 110° |
| 2026-04-24 20:43 | 29.97403 | -99.39269 | 34884 ft | 548 kts | 110° |
| 2026-04-24 20:44 | 29.94991 | -99.30948 | 34860 ft | 547 kts | 111° |
| 2026-04-24 20:44 | 29.92576 | -99.22640 | 34857 ft | 548 kts | 112° |
| 2026-04-24 20:45 | 29.89685 | -99.14499 | 34849 ft | 544 kts | 116° |
| 2026-04-24 20:45 | 29.86730 | -99.06442 | 34846 ft | 546 kts | 115° |
| 2026-04-24 20:46 | 29.83769 | -98.98387 | 34844 ft | 545 kts | 116° |
| 2026-04-24 20:46 | 29.80796 | -98.90319 | 34854 ft | 548 kts | 116° |
| 2026-04-24 20:47 | 29.77830 | -98.82286 | 34851 ft | 545 kts | 116° |
| 2026-04-24 20:47 | 29.74854 | -98.74244 | 34848 ft | 546 kts | 116° |
| 2026-04-24 20:48 | 29.71856 | -98.66164 | 34854 ft | 545 kts | 116° |
| 2026-04-24 20:48 | 29.68863 | -98.58114 | 34838 ft | 549 kts | 116° |
| 2026-04-24 20:49 | 29.65910 | -98.50112 | 34821 ft | 549 kts | 112° |
| 2026-04-24 20:49 | 29.64159 | -98.41525 | 34833 ft | 550 kts | 94° |
| 2026-04-24 20:50 | 29.63912 | -98.32642 | 34811 ft | 551 kts | 91° |
| 2026-04-24 20:50 | 29.63608 | -98.23817 | 34809 ft | 548 kts | 91° |
| 2026-04-24 20:51 | 29.63284 | -98.14966 | 34807 ft | 552 kts | 91° |
| 2026-04-24 20:51 | 29.62957 | -98.06192 | 34803 ft | 549 kts | 91° |
| 2026-04-24 20:52 | 29.62621 | -97.97347 | 34793 ft | 551 kts | 91° |
| 2026-04-24 20:52 | 29.62279 | -97.88520 | 34790 ft | 551 kts | 91° |
| 2026-04-24 20:53 | 29.61934 | -97.79726 | 34792 ft | 551 kts | 91° |
| 2026-04-24 20:53 | 29.61585 | -97.70982 | 34797 ft | 550 kts | 91° |
| 2026-04-24 20:54 | 29.61226 | -97.62160 | 34775 ft | 546 kts | 91° |
| 2026-04-24 20:54 | 29.60867 | -97.53481 | 34785 ft | 545 kts | 91° |
| 2026-04-24 20:55 | 29.60503 | -97.44785 | 34392 ft | 548 kts | 91° |
| 2026-04-24 20:55 | 29.60315 | -97.40390 | 33812 ft | 545 kts | 91° |
| 2026-04-24 20:55 | 29.60129 | -97.36034 | 33206 ft | 540 kts | 91° |
| 2026-04-24 20:56 | 29.59944 | -97.31750 | 32604 ft | 537 kts | 92° |
| 2026-04-24 20:56 | 29.59761 | -97.27509 | 32017 ft | 537 kts | 92° |
| 2026-04-24 20:56 | 29.59572 | -97.23207 | 31427 ft | 533 kts | 91° |
| 2026-04-24 20:56 | 29.59387 | -97.19027 | 30847 ft | 526 kts | 92° |
| 2026-04-24 20:57 | 29.59202 | -97.14845 | 30271 ft | 519 kts | 92° |
| 2026-04-24 20:57 | 29.59017 | -97.10722 | 29710 ft | 512 kts | 92° |
| 2026-04-24 20:57 | 29.58838 | -97.06730 | 29161 ft | 504 kts | 91° |
| 2026-04-24 20:57 | 29.58657 | -97.02726 | 28607 ft | 499 kts | 92° |
| 2026-04-24 20:58 | 29.58475 | -96.98761 | 28097 ft | 494 kts | 92° |
| 2026-04-24 20:58 | 29.58296 | -96.94868 | 27556 ft | 492 kts | 92° |
| 2026-04-24 20:58 | 29.58116 | -96.90971 | 27019 ft | 487 kts | 91° |
| 2026-04-24 20:58 | 29.57938 | -96.87131 | 26486 ft | 482 kts | 92° |
| 2026-04-24 20:59 | 29.57759 | -96.83315 | 25958 ft | 475 kts | 92° |
| 2026-04-24 20:59 | 29.57582 | -96.79557 | 25441 ft | 470 kts | 92° |
| 2026-04-24 20:59 | 29.57405 | -96.75830 | 24923 ft | 464 kts | 92° |
| 2026-04-24 20:59 | 29.57230 | -96.72155 | 24418 ft | 460 kts | 92° |
| 2026-04-24 21:00 | 29.57058 | -96.68552 | 23908 ft | 456 kts | 92° |
| 2026-04-24 21:00 | 29.56882 | -96.64919 | 23409 ft | 452 kts | 92° |
| 2026-04-24 21:00 | 29.56710 | -96.61373 | 22917 ft | 447 kts | 92° |
| 2026-04-24 21:00 | 29.56536 | -96.57807 | 22429 ft | 443 kts | 92° |
| 2026-04-24 21:01 | 29.56364 | -96.54301 | 21943 ft | 438 kts | 92° |
| 2026-04-24 21:01 | 29.56194 | -96.50848 | 21466 ft | 433 kts | 92° |
| 2026-04-24 21:01 | 29.56026 | -96.47449 | 20993 ft | 430 kts | 92° |
| 2026-04-24 21:01 | 29.55856 | -96.44029 | 20523 ft | 426 kts | 92° |
| 2026-04-24 21:02 | 29.55686 | -96.40655 | 20057 ft | 422 kts | 92° |
| 2026-04-24 21:02 | 29.55521 | -96.37361 | 19601 ft | 417 kts | 92° |
| 2026-04-24 21:02 | 29.55353 | -96.34039 | 19137 ft | 413 kts | 92° |
| 2026-04-24 21:02 | 29.55186 | -96.30757 | 18677 ft | 409 kts | 92° |
| 2026-04-24 21:03 | 29.55022 | -96.27548 | 18235 ft | 405 kts | 92° |
| 2026-04-24 21:03 | 29.54858 | -96.24334 | 17888 ft | 400 kts | 92° |
| 2026-04-24 21:03 | 29.54773 | -96.21153 | 17495 ft | 398 kts | 82° |
| 2026-04-24 21:03 | 29.55529 | -96.18194 | 17110 ft | 390 kts | 61° |
| 2026-04-24 21:04 | 29.56789 | -96.15430 | 16665 ft | 387 kts | 59° |
| 2026-04-24 21:04 | 29.58061 | -96.12727 | 16230 ft | 384 kts | 58° |
| 2026-04-24 21:04 | 29.59317 | -96.10075 | 15807 ft | 382 kts | 59° |
| 2026-04-24 21:04 | 29.60582 | -96.07407 | 15389 ft | 378 kts | 59° |
| 2026-04-24 21:05 | 29.61825 | -96.04784 | 15013 ft | 367 kts | 59° |
| 2026-04-24 21:05 | 29.63039 | -96.02225 | 14615 ft | 366 kts | 59° |
| 2026-04-24 21:05 | 29.64251 | -95.99667 | 14228 ft | 369 kts | 59° |
| 2026-04-24 21:05 | 29.65491 | -95.97047 | 13827 ft | 371 kts | 59° |
| 2026-04-24 21:06 | 29.66714 | -95.94461 | 13401 ft | 369 kts | 59° |
| 2026-04-24 21:06 | 29.67934 | -95.91881 | 13001 ft | 366 kts | 59° |
| 2026-04-24 21:06 | 29.69137 | -95.89334 | 12626 ft | 363 kts | 59° |
| 2026-04-24 21:06 | 29.70340 | -95.86787 | 12231 ft | 362 kts | 60° |
| 2026-04-24 21:07 | 29.71523 | -95.84283 | 11838 ft | 359 kts | 60° |
| 2026-04-24 21:07 | 29.72720 | -95.81745 | 11437 ft | 355 kts | 60° |
| 2026-04-24 21:07 | 29.73885 | -95.79273 | 11047 ft | 353 kts | 60° |
| 2026-04-24 21:07 | 29.75038 | -95.76826 | 10660 ft | 351 kts | 60° |
| 2026-04-24 21:08 | 29.76199 | -95.74360 | 10271 ft | 349 kts | 60° |
| 2026-04-24 21:08 | 29.77354 | -95.71907 | 9886 ft | 346 kts | 60° |
| 2026-04-24 21:08 | 29.78474 | -95.69524 | 9519 ft | 337 kts | 60° |
| 2026-04-24 21:08 | 29.79567 | -95.67198 | 9157 ft | 325 kts | 60° |
| 2026-04-24 21:09 | 29.80624 | -95.64947 | 8800 ft | 314 kts | 60° |
| 2026-04-24 21:09 | 29.81648 | -95.62765 | 8460 ft | 304 kts | 60° |
| 2026-04-24 21:09 | 29.82629 | -95.60675 | 8137 ft | 297 kts | 60° |
| 2026-04-24 21:09 | 29.83603 | -95.58598 | 7814 ft | 294 kts | 60° |
| 2026-04-24 21:10 | 29.84578 | -95.56517 | 7494 ft | 294 kts | 60° |
| 2026-04-24 21:10 | 29.85525 | -95.54487 | 7196 ft | 288 kts | 60° |
| 2026-04-24 21:10 | 29.86479 | -95.52441 | 6889 ft | 292 kts | 60° |
| 2026-04-24 21:10 | 29.87431 | -95.50397 | 6570 ft | 291 kts | 60° |
| 2026-04-24 21:11 | 29.88386 | -95.48345 | 6244 ft | 290 kts | 60° |
| 2026-04-24 21:11 | 29.89124 | -95.46187 | 5997 ft | 290 kts | 84° |
| 2026-04-24 21:11 | 29.89194 | -95.43893 | 5994 ft | 288 kts | 89° |
| 2026-04-24 21:11 | 29.89204 | -95.41560 | 5974 ft | 290 kts | 89° |
| 2026-04-24 21:12 | 29.89205 | -95.39253 | 5972 ft | 290 kts | 90° |
| 2026-04-24 21:12 | 29.89202 | -95.36899 | 5972 ft | 290 kts | 89° |
| 2026-04-24 21:12 | 29.89197 | -95.34590 | 5969 ft | 290 kts | 90° |
| 2026-04-24 21:12 | 29.89191 | -95.32272 | 5968 ft | 291 kts | 90° |
| 2026-04-24 21:13 | 29.89184 | -95.29951 | 5956 ft | 285 kts | 90° |
| 2026-04-24 21:13 | 29.89177 | -95.27706 | 5719 ft | 274 kts | 90° |
| 2026-04-24 21:13 | 29.89170 | -95.25537 | 5428 ft | 267 kts | 91° |
| 2026-04-24 21:13 | 29.89163 | -95.23429 | 5142 ft | 260 kts | 91° |
| 2026-04-24 21:14 | 29.89156 | -95.21369 | 4874 ft | 253 kts | 91° |
| 2026-04-24 21:14 | 29.89149 | -95.19379 | 4670 ft | 244 kts | 92° |
| 2026-04-24 21:14 | 29.89141 | -95.17464 | 4420 ft | 239 kts | 91° |
| 2026-04-24 21:14 | 29.89210 | -95.15552 | 4120 ft | 237 kts | 89° |
| 2026-04-24 21:15 | 29.89310 | -95.13707 | 3953 ft | 227 kts | 88° |
| 2026-04-24 21:15 | 29.89412 | -95.11922 | 3753 ft | 219 kts | 88° |
| 2026-04-24 21:15 | 29.89515 | -95.10170 | 3442 ft | 227 kts | 89° |
| 2026-04-24 21:15 | 29.89635 | -95.08342 | 3123 ft | 228 kts | 88° |
| 2026-04-24 21:16 | 29.89757 | -95.06570 | 2986 ft | 218 kts | 88° |
| 2026-04-24 21:16 | 29.89946 | -95.04846 | 2967 ft | 219 kts | 71° |
| 2026-04-24 21:16 | 29.90915 | -95.03561 | 3032 ft | 213 kts | 26° |
| 2026-04-24 21:16 | 29.92356 | -95.03233 | 3017 ft | 213 kts | 2° |
| 2026-04-24 21:17 | 29.93850 | -95.03156 | 2977 ft | 211 kts | 1° |
| 2026-04-24 21:17 | 29.95318 | -95.03082 | 2972 ft | 212 kts | 1° |
| 2026-04-24 21:17 | 29.96740 | -95.03398 | 2956 ft | 208 kts | 324° |
| 2026-04-24 21:17 | 29.97622 | -95.04658 | 2999 ft | 202 kts | 292° |
| 2026-04-24 21:18 | 29.98215 | -95.06116 | 2977 ft | 202 kts | 291° |
| 2026-04-24 21:18 | 29.98685 | -95.07636 | 2965 ft | 198 kts | 278° |
| 2026-04-24 21:18 | 29.98945 | -95.09133 | 2942 ft | 183 kts | 277° |
| 2026-04-24 21:18 | 29.99185 | -95.10510 | 2932 ft | 166 kts | 277° |
| 2026-04-24 21:19 | 29.99413 | -95.11767 | 3059 ft | 162 kts | 277° |
| 2026-04-24 21:19 | 29.99488 | -95.13075 | 2975 ft | 159 kts | 266° |
| 2026-04-24 21:19 | 29.99500 | -95.14277 | 2884 ft | 146 kts | 266° |
| 2026-04-24 21:19 | 29.99514 | -95.15429 | 2769 ft | 142 kts | 265° |
| 2026-04-24 21:20 | 29.99511 | -95.17658 | 2609 ft | 136 kts | 265° |
| 2026-04-24 21:20 | 29.99508 | -95.18751 | 2528 ft | 136 kts | 266° |
| 2026-04-24 21:20 | 29.99530 | -95.19855 | 2396 ft | 138 kts | 268° |
| 2026-04-24 21:21 | 29.99536 | -95.20967 | 2161 ft | 139 kts | 263° |
| 2026-04-24 21:21 | 29.99487 | -95.22070 | 1929 ft | 137 kts | 261° |
| 2026-04-24 21:21 | 29.99399 | -95.23162 | 1683 ft | 136 kts | 259° |
| 2026-04-24 21:21 | 29.99322 | -95.24236 | 1503 ft | 136 kts | 262° |
| 2026-04-24 21:22 | 29.99306 | -95.25329 | 1316 ft | 137 kts | 266° |
| 2026-04-24 21:22 | 29.99312 | -95.26437 | 1151 ft | 137 kts | 266° |
| 2026-04-24 21:22 | 29.99318 | -95.27529 | 961 ft | 138 kts | 266° |
| 2026-04-24 21:22 | 29.99326 | -95.28642 | 802 ft | 138 kts | 267° |
| 2026-04-24 21:23 | 29.99338 | -95.29737 | 586 ft | 139 kts | 268° |
| 2026-04-24 21:23 | 29.99346 | -95.30853 | 401 ft | 138 kts | 266° |
| 2026-04-24 21:23 | 29.99342 | -95.31953 | 226 ft | 138 kts | 268° |
| 2026-04-24 21:23 | 29.99345 | -95.33057 | 99 ft | 130 kts | 269° |
| 2026-04-24 21:24 | 29.99342 | -95.33921 | 99 ft | 83 kts | 270° |
| 2026-04-24 21:24 | 29.99342 | -95.34424 | 99 ft | 54 kts | 270° |
| 2026-04-24 21:24 | 29.99342 | -95.34847 | 99 ft | 51 kts | 269° |
| 2026-04-24 21:24 | 29.99342 | -95.35194 | 99 ft | 27 kts | 270° |
| 2026-04-24 21:25 | 29.99318 | -95.35280 | 98 ft | 8 kts | 184° |
| 2026-04-24 21:25 | 29.99255 | -95.35278 | 98 ft | 7 kts | 181° |
| 2026-04-24 21:25 | 29.99218 | -95.35278 | 98 ft | 2 kts | 179° |
| 2026-04-24 21:25 | 29.99217 | -95.35278 | 98 ft | 0 kts | 179° |
| 2026-04-24 21:27 | 29.99207 | -95.35278 | 98 ft | 3 kts | 179° |
| 2026-04-24 21:27 | 29.99181 | -95.35300 | 98 ft | 6 kts | 256° |
| 2026-04-24 21:27 | 29.99178 | -95.35368 | 99 ft | 10 kts | 270° |
| 2026-04-24 21:28 | 29.99169 | -95.35460 | 99 ft | 12 kts | 237° |
| 2026-04-24 21:28 | 29.99086 | -95.35484 | 97 ft | 14 kts | 180° |
| 2026-04-24 21:28 | 29.98979 | -95.35484 | 96 ft | 16 kts | 180° |
| 2026-04-24 21:28 | 29.98864 | -95.35484 | 96 ft | 16 kts | 177° |
| 2026-04-24 21:29 | 29.98754 | -95.35431 | 96 ft | 17 kts | 152° |
| 2026-04-24 21:29 | 29.98645 | -95.35365 | 96 ft | 18 kts | 152° |
| 2026-04-24 21:29 | 29.98531 | -95.35295 | 95 ft | 18 kts | 152° |
| 2026-04-24 21:29 | 29.98418 | -95.35225 | 96 ft | 17 kts | 152° |
| 2026-04-24 21:30 | 29.98329 | -95.35160 | 95 ft | 11 kts | 117° |
| 2026-04-24 21:30 | 29.98325 | -95.35061 | 95 ft | 13 kts | 90° |
| 2026-04-24 21:30 | 29.98325 | -95.34946 | 95 ft | 15 kts | 90° |
| 2026-04-24 21:30 | 29.98325 | -95.34818 | 95 ft | 16 kts | 90° |
| 2026-04-24 21:31 | 29.98325 | -95.34685 | 95 ft | 17 kts | 90° |
| 2026-04-24 21:31 | 29.98325 | -95.34547 | 98 ft | 14 kts | 90° |
| 2026-04-24 21:31 | 29.98348 | -95.34460 | 98 ft | 11 kts | 51° |
| 2026-04-24 21:31 | 29.98373 | -95.34422 | 98 ft | 2 kts | 51° |
| 2026-04-24 21:32 | 29.98394 | -95.34411 | 98 ft | 4 kts | 10° |
| 2026-04-24 21:32 | 29.98426 | -95.34407 | 98 ft | 5 kts | 3° |
| 2026-04-24 21:32 | 29.98438 | -95.34406 | 98 ft | 0 kts | 4° |